createdAt,value
2023-05-07T00:01:18.255Z,101003.44
2023-05-07T00:03:47.487Z,101004.63
2023-05-07T00:06:15.664Z,100999.38
2023-05-07T00:08:43.374Z,100998.50
2023-05-07T00:11:11.168Z,101005.88
2023-05-07T00:13:38.926Z,101005.75
2023-05-07T00:16:08.314Z,100999.41
2023-05-07T00:18:36.196Z,101001.47
2023-05-07T00:21:03.938Z,100995.81
2023-05-07T00:23:31.650Z,101009.59
2023-05-07T00:25:59.571Z,101011.22
2023-05-07T00:28:27.287Z,101010.09
2023-05-07T00:30:55.081Z,101011.25
2023-05-07T00:33:24.181Z,101013.03
2023-05-07T00:35:51.875Z,101012.44
2023-05-07T00:38:19.629Z,101012.22
2023-05-07T00:40:47.622Z,101011.69
2023-05-07T00:43:15.935Z,101004.50
2023-05-07T00:45:43.930Z,101011.38
2023-05-07T00:48:12.075Z,101006.81
2023-05-07T00:50:41.314Z,101002.28
2023-05-07T00:53:09.551Z,101005.97
2023-05-07T00:55:37.925Z,101006.53
2023-05-07T00:58:05.700Z,101012.66
2023-05-07T01:00:33.462Z,101009.72
2023-05-07T01:03:01.257Z,101007.00
2023-05-07T01:05:31.482Z,101005.78
2023-05-07T01:08:02.267Z,101008.56
2023-05-07T01:10:31.517Z,101012.09
2023-05-07T01:13:01.522Z,101012.00
2023-05-07T01:15:29.600Z,101009.91
2023-05-07T01:17:58.082Z,101009.88
2023-05-07T01:20:26.321Z,101007.69
2023-05-07T01:22:55.692Z,100999.28
2023-05-07T01:25:23.974Z,100993.84
2023-05-07T01:27:51.653Z,100993.31
2023-05-07T01:30:22.401Z,100994.06
2023-05-07T01:32:54.199Z,100991.59
2023-05-07T01:35:26.839Z,100995.34
2023-05-07T01:37:57.102Z,100997.88
2023-05-07T01:40:25.496Z,100995.69
2023-05-07T01:42:54.029Z,101001.19
2023-05-07T01:45:22.070Z,101001.88
2023-05-07T01:47:51.292Z,100998.41
2023-05-07T01:50:20.378Z,100999.63
2023-05-07T01:52:49.137Z,100992.94
2023-05-07T01:55:18.310Z,100999.53
2023-05-07T01:57:46.129Z,101001.47
2023-05-07T02:00:14.574Z,100997.38
2023-05-07T02:02:42.358Z,100999.44
2023-05-07T02:05:10.975Z,101004.47
2023-05-07T02:07:38.733Z,101000.59
2023-05-07T02:10:07.692Z,101003.84
2023-05-07T02:12:36.771Z,101004.81
2023-05-07T02:15:04.956Z,101010.97
2023-05-07T02:17:33.960Z,101011.97
2023-05-07T02:20:01.763Z,101011.81
2023-05-07T02:22:29.513Z,101016.47
2023-05-07T02:24:57.199Z,101021.31
2023-05-07T02:27:24.948Z,101017.22
2023-05-07T02:29:54.055Z,101026.06
2023-05-07T02:32:21.744Z,101021.53
2023-05-07T02:34:52.354Z,101026.38
2023-05-07T02:37:20.057Z,101018.66
2023-05-07T02:39:47.821Z,101019.59
2023-05-07T02:42:15.634Z,101027.69
2023-05-07T02:44:43.357Z,101025.88
2023-05-07T02:47:14.094Z,101035.97
2023-05-07T02:49:41.803Z,101034.72
2023-05-07T02:52:09.980Z,101044.41
2023-05-07T02:54:37.732Z,101043.09
2023-05-07T02:57:05.410Z,101048.03
2023-05-07T02:59:33.096Z,101044.81
2023-05-07T03:02:00.784Z,101053.75
2023-05-07T03:04:29.933Z,101048.81
2023-05-07T03:06:57.744Z,101054.50
2023-05-07T03:09:25.668Z,101060.69
2023-05-07T03:11:53.740Z,101049.16
2023-05-07T03:14:21.489Z,101056.59
2023-05-07T03:16:49.190Z,101051.47
2023-05-07T03:19:16.912Z,101054.09
2023-05-07T03:21:45.954Z,101055.72
2023-05-07T03:24:13.696Z,101062.28
2023-05-07T03:26:41.375Z,101056.31
2023-05-07T03:29:09.031Z,101061.16
2023-05-07T03:31:36.880Z,101062.69
2023-05-07T03:34:04.646Z,101057.53
2023-05-07T03:36:32.510Z,101063.50
2023-05-07T03:39:01.628Z,101073.97
2023-05-07T03:41:30.650Z,101074.13
2023-05-07T03:43:58.372Z,101075.09
2023-05-07T03:46:27.205Z,101068.31
2023-05-07T03:48:54.982Z,101072.63
2023-05-07T03:51:22.824Z,101072.72
2023-05-07T03:53:50.561Z,101063.66
2023-05-07T03:56:19.776Z,101077.81
2023-05-07T03:58:47.611Z,101080.50
2023-05-07T04:01:15.344Z,101071.75
2023-05-07T04:03:43.123Z,101070.72
2023-05-07T04:06:11.608Z,101078.47
2023-05-07T04:08:39.315Z,101082.13
2023-05-07T04:11:07.014Z,101084.00
2023-05-07T04:13:36.115Z,101087.84
2023-05-07T04:16:05.293Z,101086.44
2023-05-07T04:18:33.007Z,101088.13
2023-05-07T04:21:00.728Z,101085.75
2023-05-07T04:23:28.559Z,101090.88
2023-05-07T04:25:56.363Z,101090.97
2023-05-07T04:28:24.120Z,101097.72
2023-05-07T04:30:53.194Z,101089.94
2023-05-07T04:33:20.901Z,101096.78
2023-05-07T04:35:48.573Z,101081.91
2023-05-07T04:38:16.353Z,101089.66
2023-05-07T04:40:44.318Z,101083.06
2023-05-07T04:43:12.066Z,101087.91
2023-05-07T04:45:42.319Z,101080.94
2023-05-07T04:48:11.843Z,101085.94
2023-05-07T04:50:39.577Z,101087.09
2023-05-07T04:53:07.268Z,101096.78
2023-05-07T04:55:34.951Z,101099.56
2023-05-07T04:58:02.976Z,101096.34
2023-05-07T05:00:30.678Z,101108.00
2023-05-07T05:02:58.418Z,101109.63
2023-05-07T05:05:27.618Z,101117.94
2023-05-07T05:07:55.573Z,101113.72
2023-05-07T05:10:24.796Z,101115.97
2023-05-07T05:12:52.698Z,101113.63
2023-05-07T05:15:20.770Z,101125.50
2023-05-07T05:17:48.481Z,101117.91
2023-05-07T05:20:16.236Z,101115.03
2023-05-07T05:22:45.663Z,101117.69
2023-05-07T05:25:13.469Z,101122.03
2023-05-07T05:27:41.232Z,101123.50
2023-05-07T05:30:10.097Z,101127.63
2023-05-07T05:32:38.082Z,101129.59
2023-05-07T05:35:06.721Z,101136.69
2023-05-07T05:37:34.541Z,101132.28
2023-05-07T05:40:04.163Z,101139.19
2023-05-07T05:42:31.838Z,101137.78
2023-05-07T05:44:59.569Z,101140.75
2023-05-07T05:47:27.430Z,101142.19
2023-05-07T05:49:55.302Z,101145.75
2023-05-07T05:52:24.732Z,101145.66
2023-05-07T05:54:52.481Z,101153.09
2023-05-07T05:57:21.588Z,101149.69
2023-05-07T05:59:49.406Z,101161.00
2023-05-07T06:02:17.201Z,101158.56
2023-05-07T06:04:45.065Z,101169.03
2023-05-07T06:07:12.803Z,101169.59
2023-05-07T06:09:40.528Z,101167.25
2023-05-07T06:12:08.291Z,101177.66
2023-05-07T06:14:37.375Z,101172.00
2023-05-07T06:17:05.448Z,101170.34
2023-05-07T06:19:33.223Z,101172.28
2023-05-07T06:22:02.376Z,101179.41
2023-05-07T06:24:30.632Z,101184.56
2023-05-07T06:26:59.389Z,101187.91
2023-05-07T06:29:27.969Z,101192.69
2023-05-07T06:31:57.156Z,101190.38
2023-05-07T06:34:24.921Z,101189.94
2023-05-07T06:36:52.655Z,101195.19
2023-05-07T06:39:20.458Z,101200.06
2023-05-07T06:41:48.239Z,101204.44
2023-05-07T06:44:16.156Z,101205.03
2023-05-07T06:46:44.045Z,101200.88
2023-05-07T06:49:13.178Z,101208.63
2023-05-07T06:51:41.054Z,101212.50
2023-05-07T06:54:08.788Z,101212.00
2023-05-07T06:56:36.569Z,101209.41
2023-05-07T06:59:04.966Z,101218.19
2023-05-07T07:01:32.662Z,101222.25
2023-05-07T07:04:00.494Z,101221.88
2023-05-07T07:06:29.642Z,101224.66
2023-05-07T07:08:57.304Z,101217.91
2023-05-07T07:11:25.017Z,101220.56
2023-05-07T07:13:52.874Z,101217.78
2023-05-07T07:16:20.687Z,101229.06
2023-05-07T07:18:48.484Z,101228.22
2023-05-07T07:21:16.253Z,101236.78
2023-05-07T07:23:45.419Z,101232.25
2023-05-07T07:26:13.100Z,101230.84
2023-05-07T07:28:47.156Z,101233.78
2023-05-07T07:31:15.238Z,101246.97
2023-05-07T07:33:43.044Z,101248.00
2023-05-07T07:36:11.574Z,101244.25
2023-05-07T07:38:39.492Z,101245.84
2023-05-07T07:41:10.335Z,101249.81
2023-05-07T07:43:38.086Z,101252.53
2023-05-07T07:46:06.026Z,101258.50
2023-05-07T07:48:33.671Z,101254.44
2023-05-07T07:51:01.380Z,101263.56
2023-05-07T07:53:29.051Z,101269.91
2023-05-07T07:55:59.590Z,101277.38
2023-05-07T07:58:28.802Z,101272.41
2023-05-07T08:00:56.982Z,101277.25
2023-05-07T08:03:24.917Z,101279.50
2023-05-07T08:05:52.705Z,101282.13
2023-05-07T08:08:20.583Z,101280.38
2023-05-07T08:10:50.913Z,101286.44
2023-05-07T08:13:19.413Z,101283.41
2023-05-07T08:15:48.548Z,101292.06
2023-05-07T08:18:16.280Z,101288.69
2023-05-07T08:20:44.044Z,101292.34
2023-05-07T08:23:11.856Z,101289.66
2023-05-07T08:25:39.582Z,101302.94
2023-05-07T08:28:09.613Z,101290.72
2023-05-07T08:30:37.723Z,101298.94
2023-05-07T08:33:06.861Z,101301.91
2023-05-07T08:35:34.635Z,101299.44
2023-05-07T08:38:02.346Z,101307.31
2023-05-07T08:40:31.155Z,101302.63
2023-05-07T08:43:00.300Z,101310.50
2023-05-07T08:45:29.896Z,101302.53
2023-05-07T08:48:01.793Z,101302.63
2023-05-07T08:50:31.329Z,101309.97
2023-05-07T08:52:59.306Z,101309.53
2023-05-07T08:55:27.162Z,101307.53
2023-05-07T08:57:54.870Z,101317.31
2023-05-07T09:00:22.677Z,101315.75
2023-05-07T09:02:50.725Z,101320.88
2023-05-07T09:05:18.643Z,101317.84
2023-05-07T09:07:47.906Z,101320.53
2023-05-07T09:10:15.841Z,101326.03
2023-05-07T09:12:43.635Z,101319.72
2023-05-07T09:15:12.950Z,101323.41
2023-05-07T09:17:42.198Z,101322.88
2023-05-07T09:20:11.304Z,101318.53
2023-05-07T09:22:39.913Z,101321.69
2023-05-07T09:25:10.509Z,101327.16
2023-05-07T09:27:38.774Z,101330.56
2023-05-07T09:30:07.679Z,101341.03
2023-05-07T09:32:39.164Z,101342.34
2023-05-07T09:35:08.130Z,101338.25
2023-05-07T09:37:35.863Z,101340.53
2023-05-07T09:40:04.326Z,101338.63
2023-05-07T09:42:33.447Z,101333.03
2023-05-07T09:45:01.656Z,101339.44
2023-05-07T09:47:34.565Z,101343.38
2023-05-07T09:50:11.437Z,101348.16
2023-05-07T09:52:41.478Z,101351.22
2023-05-07T09:55:09.787Z,101355.06
2023-05-07T09:57:40.941Z,101349.63
2023-05-07T10:00:10.725Z,101349.34
2023-05-07T10:02:39.198Z,101353.53
2023-05-07T10:05:08.437Z,101351.94
2023-05-07T10:07:37.265Z,101351.28
2023-05-07T10:10:06.643Z,101354.19
2023-05-07T10:12:39.772Z,101364.38
2023-05-07T10:15:09.969Z,101364.84
2023-05-07T10:17:38.656Z,101371.84
2023-05-07T10:20:08.625Z,101374.47
2023-05-07T10:22:41.389Z,101372.38
2023-05-07T10:25:15.283Z,101380.03
2023-05-07T10:27:45.490Z,101377.25
2023-05-07T10:30:30.696Z,101386.56
2023-05-07T10:33:06.899Z,101391.75
2023-05-07T10:35:45.198Z,101391.03
2023-05-07T10:38:13.175Z,101389.47
2023-05-07T10:40:41.689Z,101387.94
2023-05-07T10:43:11.014Z,101381.13
2023-05-07T10:45:40.531Z,101394.19
2023-05-07T10:48:27.262Z,101397.94
2023-05-07T10:51:22.878Z,101407.03
2023-05-07T10:53:50.737Z,101410.25
2023-05-07T10:56:31.548Z,101413.53
2023-05-07T10:59:33.086Z,101410.63
2023-05-07T11:02:03.719Z,101405.16
2023-05-07T11:04:35.544Z,101404.69
2023-05-07T11:07:32.200Z,101407.53
2023-05-07T11:10:06.352Z,101418.47
2023-05-07T11:12:56.533Z,101409.34
2023-05-07T11:15:39.535Z,101416.88
2023-05-07T11:18:07.922Z,101409.38
2023-05-07T11:20:58.539Z,101413.91
2023-05-07T11:24:11.054Z,101408.38
2023-05-07T11:26:48.957Z,101407.25
2023-05-07T11:29:20.849Z,101407.53
2023-05-07T11:31:53.041Z,101417.03
2023-05-07T11:34:24.646Z,101403.81
2023-05-07T11:36:52.810Z,101413.78
2023-05-07T11:39:27.970Z,101418.44
2023-05-07T11:41:57.153Z,101420.25
2023-05-07T11:44:24.900Z,101424.66
2023-05-07T11:46:52.608Z,101429.22
2023-05-07T11:49:20.660Z,101425.72
2023-05-07T11:51:48.612Z,101434.53
2023-05-07T11:54:18.371Z,101435.53
2023-05-07T11:56:48.204Z,101437.53
2023-05-07T11:59:20.884Z,101436.06
2023-05-07T12:01:49.565Z,101439.28
2023-05-07T12:04:22.565Z,101438.66
2023-05-07T12:06:51.990Z,101444.09
2023-05-07T12:09:19.779Z,101442.47
2023-05-07T12:11:48.468Z,101438.66
2023-05-07T12:14:16.958Z,101439.69
2023-05-07T12:16:47.231Z,101454.34
2023-05-07T12:19:16.590Z,101453.75
2023-05-07T12:21:44.516Z,101461.47
2023-05-07T12:24:12.238Z,101455.44
2023-05-07T12:26:41.743Z,101462.25
2023-05-07T12:29:09.642Z,101455.59
2023-05-07T12:31:37.419Z,101458.75
2023-05-07T12:34:06.620Z,101455.28
2023-05-07T12:36:40.619Z,101461.81
2023-05-07T12:39:09.397Z,101458.22
2023-05-07T12:41:38.796Z,101471.31
2023-05-07T12:44:07.130Z,101477.47
2023-05-07T12:46:40.520Z,101472.41
2023-05-07T12:49:10.189Z,101469.63
2023-05-07T12:51:37.960Z,101477.28
2023-05-07T12:54:05.880Z,101474.06
2023-05-07T12:56:33.754Z,101477.16
2023-05-07T12:59:01.526Z,101479.75
2023-05-07T13:01:31.726Z,101468.78
2023-05-07T13:04:03.161Z,101472.88
2023-05-07T13:06:32.429Z,101470.47
2023-05-07T13:09:00.172Z,101476.28
2023-05-07T13:11:27.894Z,101472.88
2023-05-07T13:13:55.606Z,101469.50
2023-05-07T13:16:23.349Z,101464.94
2023-05-07T13:18:51.048Z,101467.88
2023-05-07T13:21:18.735Z,101463.91
2023-05-07T13:23:47.811Z,101473.72
2023-05-07T13:26:26.278Z,101473.66
2023-05-07T13:28:54.968Z,101472.16
2023-05-07T13:31:22.869Z,101472.25
2023-05-07T13:33:50.665Z,101475.03
2023-05-07T13:36:18.428Z,101477.81
2023-05-07T13:38:47.611Z,101474.78
2023-05-07T13:41:15.745Z,101475.84
2023-05-07T13:43:43.507Z,101475.53
2023-05-07T13:48:38.866Z,101479.41
2023-05-07T13:51:06.637Z,101487.84
2023-05-07T13:53:34.311Z,101488.91
2023-05-07T13:56:05.566Z,101482.09
2023-05-07T13:58:33.600Z,101481.56
2023-05-07T14:01:01.713Z,101479.09
2023-05-07T14:03:29.591Z,101481.81
2023-05-07T14:05:58.867Z,101486.44
2023-05-07T14:08:26.711Z,101490.53
2023-05-07T14:10:54.500Z,101493.19
2023-05-07T14:13:23.749Z,101486.25
2023-05-07T14:15:51.622Z,101487.81
2023-05-07T14:18:19.401Z,101498.28
2023-05-07T14:20:48.580Z,101487.63
2023-05-07T14:23:18.485Z,101488.94
2023-05-07T14:25:48.600Z,101490.91
2023-05-07T14:28:16.296Z,101494.69
2023-05-07T14:30:45.368Z,101486.50
2023-05-07T14:33:13.072Z,101491.00
2023-05-07T14:35:40.871Z,101498.66
2023-05-07T14:38:08.547Z,101502.59
2023-05-07T14:40:36.420Z,101503.72
2023-05-07T14:43:04.084Z,101504.38
2023-05-07T14:45:31.777Z,101503.19
2023-05-07T14:48:00.939Z,101507.84
2023-05-07T14:50:28.651Z,101512.28
2023-05-07T14:52:56.331Z,101510.16
2023-05-07T14:55:24.241Z,101512.00
2023-05-07T14:57:51.948Z,101513.38
2023-05-07T15:00:20.161Z,101516.81
2023-05-07T15:02:47.974Z,101512.22
2023-05-07T15:05:18.444Z,101504.19
2023-05-07T15:07:47.295Z,101504.94
2023-05-07T15:10:15.310Z,101502.84
2023-05-07T15:12:43.141Z,101497.53
2023-05-07T15:15:12.252Z,101496.84
2023-05-07T15:17:40.146Z,101495.63
2023-05-07T15:20:09.190Z,101496.63
2023-05-07T15:22:38.855Z,101491.50
2023-05-07T15:25:06.892Z,101495.53
2023-05-07T15:27:34.642Z,101495.06
2023-05-07T15:30:02.334Z,101488.91
2023-05-07T15:32:29.996Z,101487.03
2023-05-07T15:34:58.092Z,101504.13
2023-05-07T15:37:25.817Z,101502.81
2023-05-07T15:39:54.860Z,101500.97
2023-05-07T15:42:22.577Z,101498.97
2023-05-07T15:44:50.370Z,101507.09
2023-05-07T15:47:18.196Z,101507.78
2023-05-07T15:49:45.928Z,101504.75
2023-05-07T15:52:14.646Z,101506.53
2023-05-07T15:54:42.775Z,101503.31
2023-05-07T15:57:12.292Z,101517.88
2023-05-07T15:59:40.050Z,101513.97
2023-05-07T16:02:08.123Z,101513.59
2023-05-07T16:04:35.855Z,101520.06
2023-05-07T16:07:04.000Z,101518.38
2023-05-07T16:09:31.864Z,101520.50
2023-05-07T16:11:59.759Z,101511.72
2023-05-07T16:14:28.876Z,101505.91
2023-05-07T16:16:57.139Z,101509.69
2023-05-07T16:19:24.954Z,101515.06
2023-05-07T16:21:53.054Z,101509.53
2023-05-07T16:24:20.777Z,101514.53
2023-05-07T16:26:48.479Z,101511.94
2023-05-07T16:29:16.806Z,101518.88
2023-05-07T16:31:45.880Z,101519.47
2023-05-07T16:34:14.007Z,101511.97
2023-05-07T16:36:41.948Z,101529.47
2023-05-07T16:39:09.734Z,101532.09
2023-05-07T16:41:37.455Z,101530.59
2023-05-07T16:44:05.484Z,101535.91
2023-05-07T16:46:33.238Z,101535.06
2023-05-07T16:49:02.819Z,101535.19
2023-05-07T16:51:30.499Z,101534.47
2023-05-07T16:53:58.222Z,101538.84
2023-05-07T16:56:26.168Z,101543.63
2023-05-07T16:58:53.868Z,101541.25
2023-05-07T17:01:21.703Z,101542.13
2023-05-07T17:03:49.499Z,101533.00
2023-05-07T17:06:18.604Z,101531.84
2023-05-07T17:08:46.389Z,101536.34
2023-05-07T17:11:14.072Z,101533.00
2023-05-07T17:13:41.787Z,101538.94
2023-05-07T17:16:09.758Z,101522.00
2023-05-07T17:18:37.630Z,101528.97
2023-05-07T17:21:05.576Z,101528.75
2023-05-07T17:23:34.648Z,101515.66
2023-05-07T17:26:02.295Z,101512.25
2023-05-07T17:28:31.152Z,101507.31
2023-05-07T17:30:58.842Z,101513.13
2023-05-07T17:33:27.068Z,101518.44
2023-05-07T17:35:55.766Z,101513.19
2023-05-07T17:38:23.647Z,101525.22
2023-05-07T17:40:52.845Z,101527.81
2023-05-07T17:43:22.752Z,101529.69
2023-05-07T17:45:50.783Z,101529.50
2023-05-07T17:48:18.878Z,101528.94
2023-05-07T17:50:46.803Z,101529.53
2023-05-07T17:53:14.657Z,101531.03
2023-05-07T17:55:43.634Z,101537.56
2023-05-07T17:58:13.265Z,101536.28
2023-05-07T18:00:41.197Z,101539.69
2023-05-07T18:03:08.955Z,101535.00
2023-05-07T18:05:38.328Z,101541.31
2023-05-07T18:08:07.578Z,101543.56
2023-05-07T18:10:35.352Z,101542.03
2023-05-07T18:13:03.220Z,101545.31
2023-05-07T18:15:32.507Z,101534.69
2023-05-07T18:18:00.437Z,101547.09
2023-05-07T18:20:28.206Z,101551.16
2023-05-07T18:22:55.966Z,101555.59
2023-05-07T18:25:23.855Z,101560.63
2023-05-07T18:27:51.542Z,101560.03
2023-05-07T18:30:19.394Z,101556.34
2023-05-07T18:32:48.508Z,101557.41
2023-05-07T18:35:16.855Z,101557.09
2023-05-07T18:37:44.579Z,101561.28
2023-05-07T18:40:13.504Z,101559.38
2023-05-07T18:42:41.429Z,101571.94
2023-05-07T18:45:09.728Z,101564.25
2023-05-07T18:47:37.437Z,101568.59
2023-05-07T18:50:08.264Z,101574.81
2023-05-07T18:52:36.889Z,101572.97
2023-05-07T18:55:05.385Z,101581.41
2023-05-07T18:57:33.123Z,101587.28
2023-05-07T19:00:00.805Z,101592.00
2023-05-07T19:02:28.566Z,101598.44
2023-05-07T19:04:56.325Z,101593.63
2023-05-07T19:07:25.478Z,101599.78
2023-05-07T19:10:04.264Z,101604.44
2023-05-07T19:12:33.056Z,101606.03
2023-05-07T19:15:00.820Z,101598.63
2023-05-07T19:17:28.580Z,101612.13
2023-05-07T19:19:56.421Z,101617.59
2023-05-07T19:22:25.602Z,101621.25
2023-05-07T19:24:53.373Z,101630.31
2023-05-07T19:27:21.195Z,101626.69
2023-05-07T19:29:48.845Z,101631.81
2023-05-07T19:32:16.603Z,101631.88
2023-05-07T19:34:44.275Z,101631.28
2023-05-07T19:37:11.980Z,101631.41
2023-05-07T19:39:41.596Z,101645.56
2023-05-07T19:42:09.272Z,101642.38
2023-05-07T19:44:36.932Z,101654.78
2023-05-07T19:47:05.757Z,101654.75
2023-05-07T19:49:33.601Z,101655.47
2023-05-07T19:52:01.414Z,101663.28
2023-05-07T19:54:29.849Z,101661.84
2023-05-07T19:56:58.941Z,101663.59
2023-05-07T19:59:27.373Z,101660.81
2023-05-07T20:01:55.631Z,101676.28
2023-05-07T20:04:29.030Z,101673.81
2023-05-07T20:06:56.799Z,101670.34
2023-05-07T20:09:24.558Z,101667.16
2023-05-07T20:11:52.324Z,101672.94
2023-05-07T20:14:21.448Z,101670.16
2023-05-07T20:16:49.259Z,101675.53
2023-05-07T20:19:17.868Z,101696.78
2023-05-07T20:21:45.832Z,101704.97
2023-05-07T20:24:13.702Z,101711.06
2023-05-07T20:26:41.473Z,101707.28
2023-05-07T20:29:09.229Z,101703.56
2023-05-07T20:31:38.509Z,101704.13
2023-05-07T20:34:06.467Z,101710.88
2023-05-07T20:36:34.463Z,101698.72
2023-05-07T20:39:02.243Z,101714.59
2023-05-07T20:41:29.988Z,101718.78
2023-05-07T20:43:58.098Z,101720.13
2023-05-07T20:46:27.445Z,101726.75
2023-05-07T20:48:56.650Z,101730.56
2023-05-07T20:51:24.380Z,101738.19
2023-05-07T20:53:52.167Z,101740.09
2023-05-07T20:56:19.976Z,101753.34
2023-05-07T20:58:47.742Z,101756.34
2023-05-07T21:01:15.809Z,101760.78
2023-05-07T21:03:43.569Z,101753.03
2023-05-07T21:06:12.604Z,101762.69
2023-05-07T21:08:40.323Z,101752.69
2023-05-07T21:11:09.935Z,101750.19
2023-05-07T21:13:37.683Z,101752.09
2023-05-07T21:16:06.589Z,101753.88
2023-05-07T21:18:34.303Z,101764.88
2023-05-07T21:21:01.996Z,101763.47
2023-05-07T21:23:31.037Z,101763.47
2023-05-07T21:25:58.813Z,101763.72
2023-05-07T21:28:26.617Z,101753.53
2023-05-07T21:30:54.420Z,101751.06
2023-05-07T21:33:22.244Z,101755.31
2023-05-07T21:35:49.965Z,101759.94
2023-05-07T21:38:18.672Z,101761.78
2023-05-07T21:40:47.722Z,101756.41
2023-05-07T21:43:15.405Z,101765.44
2023-05-07T21:45:43.089Z,101759.38
2023-05-07T21:48:10.856Z,101768.06
2023-05-07T21:50:38.589Z,101761.44
2023-05-07T21:53:06.375Z,101761.81
2023-05-07T21:55:34.198Z,101755.03
2023-05-07T21:58:06.079Z,101757.81
2023-05-07T22:00:34.390Z,101759.28
2023-05-07T22:03:02.476Z,101755.16
2023-05-07T22:05:30.470Z,101752.22
2023-05-07T22:07:58.189Z,101749.06
2023-05-07T22:10:25.953Z,101758.31
2023-05-07T22:12:53.940Z,101750.00
2023-05-07T22:15:23.156Z,101744.16
2023-05-07T22:17:50.876Z,101753.94
2023-05-07T22:20:18.900Z,101761.66
2023-05-07T22:22:48.423Z,101754.09
2023-05-07T22:25:18.301Z,101756.28
2023-05-07T22:27:46.051Z,101760.53
2023-05-07T22:30:14.373Z,101765.41
2023-05-07T22:32:44.811Z,101769.75
2023-05-07T22:35:12.645Z,101771.28
2023-05-07T22:37:40.423Z,101766.25
2023-05-07T22:40:09.193Z,101764.63
2023-05-07T22:42:36.943Z,101756.91
2023-05-07T22:45:05.033Z,101762.28
2023-05-07T22:47:32.844Z,101767.13
2023-05-07T22:50:02.042Z,101765.13
2023-05-07T22:52:30.018Z,101766.97
2023-05-07T22:54:57.803Z,101771.59
2023-05-07T22:57:25.493Z,101768.25
2023-05-07T22:59:55.380Z,101765.41
2023-05-07T23:02:23.476Z,101765.13
2023-05-07T23:04:51.549Z,101762.19
2023-05-07T23:07:20.582Z,101758.91
2023-05-07T23:09:48.317Z,101757.41
2023-05-07T23:12:16.016Z,101761.03
2023-05-07T23:14:43.688Z,101776.47
2023-05-07T23:17:11.544Z,101778.06
2023-05-07T23:19:39.385Z,101778.75
2023-05-07T23:22:07.106Z,101783.94
2023-05-07T23:24:36.161Z,101785.00
2023-05-07T23:27:05.736Z,101776.78
2023-05-07T23:29:33.667Z,101789.19
2023-05-07T23:32:01.904Z,101794.84
2023-05-07T23:34:29.670Z,101788.97
2023-05-07T23:36:57.471Z,101784.97
2023-05-07T23:39:25.277Z,101784.13
2023-05-07T23:41:54.372Z,101786.88
2023-05-07T23:44:22.150Z,101784.31
2023-05-07T23:46:50.005Z,101787.03
2023-05-07T23:49:17.822Z,101780.34
2023-05-07T23:51:45.587Z,101774.09
2023-05-07T23:54:13.513Z,101771.28
2023-05-07T23:56:41.213Z,101771.41
2023-05-07T23:59:10.368Z,101771.97
